Time;durP1;ratioP1;P1;durP2;ratioP2;P2;SDS_P1;SDS_P2;PMS_P1;PMS_P2;Temp;Humidity;BMP_temperature;BMP_pressure;BME280_temperature;BME280_humidity;BME280_pressure;Samples;Min_cycle;Max_cycle;Signal;HPM_P1;HPM_P2
2023/03/21 00:01:14;;;;;;;2.45;1.45;;;;;;;;;;5076271;28;20096;-83
2023/03/21 00:03:42;;;;;;;1.88;1.50;;;;;;;;;;5077668;28;20090;-83
2023/03/21 00:06:11;;;;;;;2.30;1.40;;;;;;;;;;5077438;28;20043;-82
2023/03/21 00:08:37;;;;;;;2.22;1.20;;;;;;;;;;5077694;28;20417;-83
2023/03/21 00:11:06;;;;;;;2.28;1.60;;;;;;;;;;5077301;28;20032;-82
2023/03/21 00:13:37;;;;;;;2.40;1.48;;;;;;;;;;5077332;28;20089;-83
2023/03/21 00:16:15;;;;;;;2.35;1.40;;;;;;;;;;5076232;28;20450;-83
2023/03/21 00:18:46;;;;;;;3.20;1.50;;;;;;;;;;5077491;28;20025;-83
2023/03/21 00:21:14;;;;;;;2.95;1.40;;;;;;;;;;5077741;28;20107;-82
2023/03/21 00:23:40;;;;;;;5.03;1.58;;;;;;;;;;5077145;28;20037;-83
2023/03/21 00:26:08;;;;;;;2.75;1.60;;;;;;;;;;5076612;28;20089;-82
2023/03/21 00:28:41;;;;;;;1.83;1.40;;;;;;;;;;5077242;28;20070;-82
2023/03/21 00:31:07;;;;;;;4.03;1.70;;;;;;;;;;5076170;28;20040;-82
2023/03/21 00:33:34;;;;;;;2.80;1.60;;;;;;;;;;5076241;28;20123;-82
2023/03/21 00:36:01;;;;;;;2.40;1.45;;;;;;;;;;5075949;28;20032;-82
2023/03/21 00:38:27;;;;;;;2.63;1.60;;;;;;;;;;5075874;28;20512;-82
2023/03/21 00:40:52;;;;;;;1.75;1.35;;;;;;;;;;5075608;28;20036;-83
2023/03/21 00:43:22;;;;;;;3.25;1.40;;;;;;;;;;5077515;28;20387;-83
2023/03/21 00:45:50;;;;;;;2.33;1.50;;;;;;;;;;5076866;28;20217;-82
2023/03/21 00:48:17;;;;;;;1.85;1.30;;;;;;;;;;5075168;28;20058;-83
2023/03/21 00:50:45;;;;;;;2.55;1.20;;;;;;;;;;5075988;28;20503;-83
2023/03/21 00:53:11;;;;;;;3.33;1.30;;;;;;;;;;5075284;28;20136;-83
2023/03/21 00:55:40;;;;;;;1.90;1.20;;;;;;;;;;5059167;28;20050;-82
2023/03/21 00:58:06;;;;;;;1.50;1.20;;;;;;;;;;5077232;28;20040;-82
2023/03/21 01:00:32;;;;;;;2.03;1.52;;;;;;;;;;5059318;28;20392;-83
2023/03/21 01:03:04;;;;;;;1.73;1.27;;;;;;;;;;5076284;28;20039;-83
2023/03/21 01:08:18;;;;;;;3.42;1.30;;;;;;;;;;5075608;28;20047;-82
2023/03/21 01:10:46;;;;;;;1.55;1.27;;;;;;;;;;5075725;28;20032;-82
2023/03/21 01:13:15;;;;;;;2.38;1.33;;;;;;;;;;5075695;28;20043;-83
2023/03/21 01:15:46;;;;;;;2.47;1.30;;;;;;;;;;5076029;28;20033;-82
2023/03/21 01:18:13;;;;;;;1.73;1.17;;;;;;;;;;5076247;28;20060;-82
2023/03/21 01:20:41;;;;;;;3.15;1.30;;;;;;;;;;5074925;28;20040;-82
2023/03/21 01:23:08;;;;;;;1.52;1.20;;;;;;;;;;5074915;28;20028;-82
2023/03/21 01:25:33;;;;;;;2.42;1.30;;;;;;;;;;5075675;28;20047;-83
2023/03/21 01:27:59;;;;;;;2.25;1.50;;;;;;;;;;5074450;28;20036;-83
2023/03/21 01:30:25;;;;;;;2.45;1.38;;;;;;;;;;5075729;28;20032;-83
2023/03/21 01:32:52;;;;;;;2.75;1.25;;;;;;;;;;5074712;28;20451;-84
2023/03/21 01:35:17;;;;;;;2.67;1.30;;;;;;;;;;5074019;28;20028;-83
2023/03/21 01:37:43;;;;;;;2.47;1.40;;;;;;;;;;5074560;28;20081;-83
2023/03/21 01:40:18;;;;;;;2.65;1.30;;;;;;;;;;5074353;28;20040;-82
2023/03/21 01:42:44;;;;;;;2.20;1.30;;;;;;;;;;5080555;22;20128;-86
2023/03/21 01:45:47;;;;;;;2.10;1.40;;;;;;;;;;5039822;28;20033;-87
2023/03/21 01:48:15;;;;;;;2.20;1.30;;;;;;;;;;5058342;28;20144;-87
2023/03/21 01:50:49;;;;;;;1.88;1.30;;;;;;;;;;5052583;28;20083;-87
2023/03/21 01:53:49;;;;;;;1.95;1.30;;;;;;;;;;5038498;28;20120;-86
2023/03/21 01:56:34;;;;;;;3.25;1.30;;;;;;;;;;5055430;28;20025;-87
2023/03/21 01:59:37;;;;;;;1.73;1.30;;;;;;;;;;5056523;28;20033;-85
2023/03/21 02:02:53;;;;;;;1.40;1.20;;;;;;;;;;5032577;28;20080;-88
2023/03/21 02:05:53;;;;;;;3.42;1.42;;;;;;;;;;5045567;28;20419;-86
2023/03/21 02:08:22;;;;;;;1.90;1.40;;;;;;;;;;5053727;28;20029;-88
2023/03/21 02:10:49;;;;;;;3.15;1.40;;;;;;;;;;5053743;28;20041;-86
2023/03/21 02:13:24;;;;;;;2.85;1.40;;;;;;;;;;5053443;28;20079;-84
2023/03/21 02:16:16;;;;;;;3.15;1.30;;;;;;;;;;5036495;28;20400;-85
2023/03/21 02:19:06;;;;;;;1.70;1.40;;;;;;;;;;5053525;28;20045;-85
2023/03/21 02:22:09;;;;;;;1.63;1.25;;;;;;;;;;5053428;28;20025;-85
2023/03/21 02:24:39;;;;;;;;;;;;;;;;;;5054026;28;20515;-84
2023/03/21 02:27:07;;;;;;;4.07;1.50;;;;;;;;;;5053677;28;19959;-85
2023/03/21 02:29:51;;;;;;;3.65;1.50;;;;;;;;;;5054594;28;20439;-85
2023/03/21 02:32:34;;;;;;;4.07;1.48;;;;;;;;;;5053776;28;20063;-86
2023/03/21 02:35:34;;;;;;;3.40;1.40;;;;;;;;;;5054436;28;20044;-86
2023/03/21 02:38:09;;;;;;;1.95;1.33;;;;;;;;;;5054819;28;20025;-87
2023/03/21 02:40:46;;;;;;;1.88;1.40;;;;;;;;;;5055923;28;20048;-86
2023/03/21 02:43:36;;;;;;;3.60;1.40;;;;;;;;;;5055776;28;20037;-85
2023/03/21 02:46:16;;;;;;;3.08;1.40;;;;;;;;;;5056092;28;20033;-87
2023/03/21 02:48:54;;;;;;;1.98;1.40;;;;;;;;;;5058686;28;20045;-86
2023/03/21 02:51:23;;;;;;;2.92;1.50;;;;;;;;;;5052925;28;20045;-86
2023/03/21 02:54:01;;;;;;;5.13;1.67;;;;;;;;;;5051967;28;20033;-86
2023/03/21 02:56:30;;;;;;;1.90;1.42;;;;;;;;;;5051907;28;20108;-85
2023/03/21 02:58:56;;;;;;;2.30;1.58;;;;;;;;;;5051853;28;20489;-85
2023/03/21 03:01:24;;;;;;;2.47;1.42;;;;;;;;;;5051926;28;20033;-86
2023/03/21 03:03:51;;;;;;;3.00;1.80;;;;;;;;;;5050690;28;20033;-86
2023/03/21 03:06:46;;;;;;;4.45;1.60;;;;;;;;;;5051307;28;20032;-86
2023/03/21 03:09:37;;;;;;;3.35;1.70;;;;;;;;;;5044295;28;20040;-85
2023/03/21 03:12:15;;;;;;;5.93;1.90;;;;;;;;;;5036980;28;20033;-86
2023/03/21 03:14:46;;;;;;;2.80;1.75;;;;;;;;;;5054378;28;20032;-87
2023/03/21 03:17:17;;;;;;;3.08;2.00;;;;;;;;;;5053236;28;20083;-86
2023/03/21 03:20:14;;;;;;;4.18;2.03;;;;;;;;;;5053055;28;20039;-84
2023/03/21 03:26:14;;;;;;;3.35;1.88;;;;;;;;;;5072840;28;20033;-86
2023/03/21 03:28:50;;;;;;;2.00;1.70;;;;;;;;;;5073475;28;20051;-88
2023/03/21 03:31:32;;;;;;;5.25;1.90;;;;;;;;;;5073188;28;20033;-86
2023/03/21 03:34:14;;;;;;;2.50;1.70;;;;;;;;;;5072058;28;20500;-85
2023/03/21 03:40:39;;;;;;;3.50;1.98;;;;;;;;;;5076000;28;20074;-86
2023/03/21 03:43:52;;;;;;;4.10;2.03;;;;;;;;;;5076326;28;20029;-87
2023/03/21 03:46:38;;;;;;;2.22;1.63;;;;;;;;;;5077312;28;20405;-86
2023/03/21 03:49:22;;;;;;;3.28;1.70;;;;;;;;;;5075820;28;20047;-87
2023/03/21 03:52:14;;;;;;;2.28;1.75;;;;;;;;;;5077480;28;20036;-87
2023/03/21 03:55:00;;;;;;;3.05;1.90;;;;;;;;;;5071980;28;20402;-84
2023/03/21 03:57:37;;;;;;;3.70;1.70;;;;;;;;;;5071601;28;20076;-85
2023/03/21 04:00:12;;;;;;;2.67;1.65;;;;;;;;;;5071514;28;20064;-87
2023/03/21 04:02:49;;;;;;;4.28;1.90;;;;;;;;;;5042401;28;20065;-85
2023/03/21 04:06:03;;;;;;;3.20;1.73;;;;;;;;;;5071509;28;20052;-87
2023/03/21 04:08:38;;;;;;;2.83;1.67;;;;;;;;;;5054394;28;20041;-88
2023/03/21 04:11:46;;;;;;;2.40;1.55;;;;;;;;;;5071431;28;20051;-87
2023/03/21 04:14:20;;;;;;;3.25;1.80;;;;;;;;;;5072729;28;20526;-85
2023/03/21 04:17:02;;;;;;;2.15;1.52;;;;;;;;;;5058046;28;20040;-87
2023/03/21 04:19:50;;;;;;;2.85;1.80;;;;;;;;;;5076158;28;20037;-86
2023/03/21 04:23:16;;;;;;;2.47;1.90;;;;;;;;;;5073875;28;20078;-87
2023/03/21 04:25:53;;;;;;;3.03;1.70;;;;;;;;;;5074043;28;20083;-86
2023/03/21 04:28:59;;;;;;;2.88;1.63;;;;;;;;;;5085469;28;20400;-87
2023/03/21 04:31:48;;;;;;;2.42;1.70;;;;;;;;;;5091500;23;20075;-86
2023/03/21 04:34:22;;;;;;;2.63;1.85;;;;;;;;;;5076243;28;20048;-86
2023/03/21 04:37:26;;;;;;;3.42;2.03;;;;;;;;;;5077168;28;20122;-87
2023/03/21 04:43:00;;;;;;;3.65;1.95;;;;;;;;;;5075747;28;20041;-84
2023/03/21 04:45:26;;;;;;;2.22;1.70;;;;;;;;;;5057798;28;20533;-86
2023/03/21 04:51:15;;;;;;;2.75;1.80;;;;;;;;;;5076649;28;20523;-84
2023/03/21 04:54:06;;;;;;;4.15;1.95;;;;;;;;;;5082350;28;20500;-84
2023/03/21 04:56:35;;;;;;;2.70;1.80;;;;;;;;;;5074265;28;20481;-85
2023/03/21 04:59:49;;;;;;;;;;;;;;;;;;5075383;28;20463;-84
2023/03/21 05:02:25;;;;;;;3.33;2.00;;;;;;;;;;5074317;28;19939;-85
2023/03/21 05:08:23;;;;;;;3.63;1.90;;;;;;;;;;5065871;28;20044;-86
2023/03/21 05:11:12;;;;;;;3.33;2.03;;;;;;;;;;5074334;28;20056;-86
2023/03/21 05:13:47;;;;;;;3.60;2.67;;;;;;;;;;5074790;28;20028;-87
2023/03/21 05:16:15;;;;;;;3.08;2.55;;;;;;;;;;5074456;28;20436;-87
2023/03/21 05:18:43;;;;;;;2.55;2.00;;;;;;;;;;5073714;28;20036;-87
2023/03/21 05:21:16;;;;;;;3.08;2.30;;;;;;;;;;5073607;28;20036;-87
2023/03/21 05:23:43;;;;;;;3.28;2.33;;;;;;;;;;5057148;28;20032;-86
2023/03/21 05:26:09;;;;;;;4.05;2.38;;;;;;;;;;5075082;28;20098;-86
2023/03/21 05:28:52;;;;;;;;;;;;;;;;;;5074519;28;20031;-83
2023/03/21 05:31:18;;;;;;;3.72;2.60;;;;;;;;;;5073033;28;20291;-87
2023/03/21 05:33:47;;;;;;;6.45;2.78;;;;;;;;;;5072702;28;20094;-86
2023/03/21 05:36:15;;;;;;;6.40;4.00;;;;;;;;;;5072627;28;20027;-86
2023/03/21 05:38:47;;;;;;;5.00;3.30;;;;;;;;;;5072932;28;20033;-86
2023/03/21 05:41:15;;;;;;;5.93;3.65;;;;;;;;;;5073776;28;20036;-87
2023/03/21 05:43:41;;;;;;;9.32;5.30;;;;;;;;;;5081622;28;20033;-85
2023/03/21 05:46:07;;;;;;;5.50;3.50;;;;;;;;;;5075376;28;20381;-86
2023/03/21 05:48:33;;;;;;;3.13;2.50;;;;;;;;;;5076151;28;20032;-84
2023/03/21 05:51:13;;;;;;;4.88;2.60;;;;;;;;;;5060491;28;20059;-86
2023/03/21 05:53:39;;;;;;;4.35;2.50;;;;;;;;;;5077891;28;20037;-85
2023/03/21 05:56:05;;;;;;;4.03;2.15;;;;;;;;;;5082430;28;20104;-83
2023/03/21 05:58:50;;;;;;;3.85;2.30;;;;;;;;;;5073598;28;20034;-84
2023/03/21 06:01:17;;;;;;;2.95;2.17;;;;;;;;;;5073506;28;20538;-86
2023/03/21 06:03:50;;;;;;;3.08;2.20;;;;;;;;;;5073410;28;20056;-84
2023/03/21 06:06:20;;;;;;;3.13;2.00;;;;;;;;;;5073659;28;20082;-85
2023/03/21 06:08:54;;;;;;;5.20;2.60;;;;;;;;;;5074065;28;20044;-85
2023/03/21 06:11:30;;;;;;;3.22;2.40;;;;;;;;;;5057961;28;20036;-86
2023/03/21 06:14:31;;;;;;;2.58;2.00;;;;;;;;;;5070080;28;20032;-85
2023/03/21 06:17:11;;;;;;;2.72;2.30;;;;;;;;;;5062300;28;20028;-86
2023/03/21 06:19:44;;;;;;;6.85;2.40;;;;;;;;;;5077266;28;20040;-86
2023/03/21 06:22:16;;;;;;;2.75;2.30;;;;;;;;;;5059427;28;20460;-87
2023/03/21 06:24:42;;;;;;;5.63;2.88;;;;;;;;;;5059053;28;20094;-86
2023/03/21 06:27:07;;;;;;;4.65;2.58;;;;;;;;;;5074514;28;20503;-86
2023/03/21 06:29:46;;;;;;;4.15;2.75;;;;;;;;;;5059924;28;20041;-87
2023/03/21 06:32:12;;;;;;;4.45;2.90;;;;;;;;;;5057835;28;20036;-86
2023/03/21 06:34:38;;;;;;;7.85;2.75;;;;;;;;;;5057628;28;20376;-84
2023/03/21 06:37:04;;;;;;;5.90;2.70;;;;;;;;;;5058358;28;20477;-82
2023/03/21 06:39:32;;;;;;;7.20;2.60;;;;;;;;;;5075155;28;20477;-83
2023/03/21 06:41:59;;;;;;;3.22;2.47;;;;;;;;;;5058591;28;20504;-84
2023/03/21 06:44:25;;;;;;;3.10;2.40;;;;;;;;;;5074991;28;20255;-84
2023/03/21 06:46:57;;;;;;;3.55;2.60;;;;;;;;;;5074556;28;20507;-85
2023/03/21 06:49:23;;;;;;;4.82;2.30;;;;;;;;;;5075926;28;20052;-87
2023/03/21 06:51:49;;;;;;;4.88;2.15;;;;;;;;;;5074678;28;20020;-84
2023/03/21 06:54:19;;;;;;;3.55;2.30;;;;;;;;;;5076268;28;20028;-87
2023/03/21 06:57:14;;;;;;;3.15;2.20;;;;;;;;;;5071549;28;20036;-84
2023/03/21 06:59:43;;;;;;;3.25;2.30;;;;;;;;;;5063468;28;20028;-86
2023/03/21 07:02:19;;;;;;;4.80;2.10;;;;;;;;;;5073812;28;20028;-87
2023/03/21 07:04:55;;;;;;;4.93;2.10;;;;;;;;;;5074540;28;20048;-86
2023/03/21 07:07:25;;;;;;;7.70;2.10;;;;;;;;;;5073697;28;20527;-87
2023/03/21 07:09:50;;;;;;;8.43;3.72;;;;;;;;;;5073549;28;20411;-85
2023/03/21 07:12:16;;;;;;;3.85;2.95;;;;;;;;;;5073558;28;20123;-84
2023/03/21 07:14:56;;;;;;;4.85;2.40;;;;;;;;;;5073349;28;20115;-87
2023/03/21 07:17:22;;;;;;;5.15;2.10;;;;;;;;;;5074668;28;20124;-86
2023/03/21 07:19:48;;;;;;;2.90;1.98;;;;;;;;;;5072832;28;20036;-84
2023/03/21 07:22:17;;;;;;;3.22;2.20;;;;;;;;;;5072735;28;20036;-86
2023/03/21 07:24:43;;;;;;;4.13;2.28;;;;;;;;;;5056693;28;20029;-86
2023/03/21 07:27:08;;;;;;;4.38;2.20;;;;;;;;;;5072726;28;20033;-86
2023/03/21 07:29:34;;;;;;;3.83;1.95;;;;;;;;;;5072400;28;20521;-86
2023/03/21 07:31:59;;;;;;;3.22;2.10;;;;;;;;;;5072228;28;20393;-87
2023/03/21 07:34:26;;;;;;;7.47;1.90;;;;;;;;;;5056880;28;20044;-88
2023/03/21 07:36:51;;;;;;;3.75;1.90;;;;;;;;;;5072649;28;20497;-86
2023/03/21 07:39:19;;;;;;;2.63;2.03;;;;;;;;;;5072635;28;20036;-88
2023/03/21 07:41:44;;;;;;;4.07;2.10;;;;;;;;;;5073358;28;20480;-88
2023/03/21 07:44:23;;;;;;;2.75;1.90;;;;;;;;;;5072615;28;20063;-87
2023/03/21 07:47:00;;;;;;;2.58;1.90;;;;;;;;;;5070979;23;20048;-83
2023/03/21 07:49:26;;;;;;;4.28;2.05;;;;;;;;;;5075367;28;20132;-84
2023/03/21 07:51:51;;;;;;;3.17;2.22;;;;;;;;;;5077401;28;20032;-83
2023/03/21 07:54:19;;;;;;;4.07;2.30;;;;;;;;;;5078225;28;20024;-83
2023/03/21 07:56:45;;;;;;;3.35;2.20;;;;;;;;;;5078704;28;20028;-83
2023/03/21 07:59:10;;;;;;;3.28;2.13;;;;;;;;;;5076870;28;20036;-84
2023/03/21 08:01:36;;;;;;;3.60;2.22;;;;;;;;;;5079550;28;20064;-84
2023/03/21 08:04:01;;;;;;;5.90;2.10;;;;;;;;;;5079587;28;20447;-83
2023/03/21 08:06:27;;;;;;;3.00;2.10;;;;;;;;;;5078832;28;20044;-83
2023/03/21 08:08:53;;;;;;;2.88;2.10;;;;;;;;;;5078992;28;20047;-82
2023/03/21 08:11:20;;;;;;;3.72;2.20;;;;;;;;;;5078287;28;20040;-82
2023/03/21 08:13:46;;;;;;;4.13;2.17;;;;;;;;;;5078669;28;20107;-83
2023/03/21 08:16:12;;;;;;;3.00;1.95;;;;;;;;;;5078285;28;20514;-81
2023/03/21 08:18:37;;;;;;;2.35;1.90;;;;;;;;;;5078006;28;20045;-83
2023/03/21 08:21:03;;;;;;;2.72;1.77;;;;;;;;;;5079070;28;20067;-82
2023/03/21 08:23:28;;;;;;;3.50;1.80;;;;;;;;;;5078102;28;20032;-82
2023/03/21 08:25:54;;;;;;;2.63;1.98;;;;;;;;;;5076707;28;20039;-83
2023/03/21 08:28:20;;;;;;;3.33;2.13;;;;;;;;;;5078030;28;20043;-82
2023/03/21 08:30:46;;;;;;;2.88;1.80;;;;;;;;;;5078709;28;20029;-82
2023/03/21 08:33:12;;;;;;;2.88;1.80;;;;;;;;;;5076859;28;20404;-82
2023/03/21 08:35:39;;;;;;;3.42;1.65;;;;;;;;;;5077372;28;20032;-83
2023/03/21 08:38:05;;;;;;;2.72;1.90;;;;;;;;;;5078881;28;20079;-83
2023/03/21 08:40:31;;;;;;;4.10;1.90;;;;;;;;;;5080479;28;20033;-83
2023/03/21 08:42:56;;;;;;;3.72;1.63;;;;;;;;;;5079336;28;20446;-82
2023/03/21 08:45:23;;;;;;;2.80;1.90;;;;;;;;;;5076294;28;20091;-82
2023/03/21 08:47:49;;;;;;;5.50;1.60;;;;;;;;;;5077948;28;20135;-83
2023/03/21 08:50:18;;;;;;;2.42;1.80;;;;;;;;;;5079284;28;20070;-84
2023/03/21 08:52:44;;;;;;;2.85;1.92;;;;;;;;;;5079792;28;20119;-84
2023/03/21 08:55:11;;;;;;;2.50;1.75;;;;;;;;;;5061784;28;20117;-83
2023/03/21 08:57:37;;;;;;;4.85;1.80;;;;;;;;;;5079081;28;20572;-83
2023/03/21 09:00:16;;;;;;;2.65;1.75;;;;;;;;;;5079273;28;20086;-83
2023/03/21 09:02:48;;;;;;;3.25;1.75;;;;;;;;;;5077939;28;20032;-82
2023/03/21 09:05:15;;;;;;;4.25;2.00;;;;;;;;;;5078206;28;20032;-82
2023/03/21 09:07:41;;;;;;;3.95;1.90;;;;;;;;;;5078176;28;20028;-84
2023/03/21 09:10:11;;;;;;;3.90;1.95;;;;;;;;;;5078482;28;20579;-83
2023/03/21 09:12:36;;;;;;;2.88;2.00;;;;;;;;;;5078996;28;20036;-83
2023/03/21 09:15:03;;;;;;;2.78;1.77;;;;;;;;;;5079359;28;20123;-80
2023/03/21 09:17:30;;;;;;;3.33;2.40;;;;;;;;;;5077471;28;20031;-82
2023/03/21 09:19:59;;;;;;;2.75;2.00;;;;;;;;;;5081023;28;20068;-83
2023/03/21 09:22:26;;;;;;;2.38;1.80;;;;;;;;;;5078310;28;20396;-82
2023/03/21 09:24:52;;;;;;;2.75;1.90;;;;;;;;;;5080165;28;20040;-82
2023/03/21 09:27:21;;;;;;;3.60;2.13;;;;;;;;;;5078065;28;20037;-82
2023/03/21 09:29:50;;;;;;;4.15;1.98;;;;;;;;;;5078301;28;20036;-82
2023/03/21 09:32:17;;;;;;;2.83;1.92;;;;;;;;;;5080726;28;20530;-83
2023/03/21 09:34:43;;;;;;;3.38;1.90;;;;;;;;;;5079229;28;20040;-83
2023/03/21 09:37:11;;;;;;;4.88;2.08;;;;;;;;;;5079804;28;20050;-84
2023/03/21 09:39:39;;;;;;;4.25;2.17;;;;;;;;;;5078749;28;20055;-81
2023/03/21 09:42:25;;;;;;;3.42;1.90;;;;;;;;;;5078086;28;20085;-83
2023/03/21 09:44:57;;;;;;;4.70;2.17;;;;;;;;;;5076765;28;20032;-83
2023/03/21 09:47:31;;;;;;;4.32;2.60;;;;;;;;;;5076668;28;20033;-83
2023/03/21 09:50:04;;;;;;;3.60;2.65;;;;;;;;;;5077894;28;20036;-81
2023/03/21 09:52:42;;;;;;;5.50;2.63;;;;;;;;;;5078009;28;20032;-82
2023/03/21 09:55:18;;;;;;;3.28;2.50;;;;;;;;;;5077696;28;20040;-82
2023/03/21 09:57:51;;;;;;;3.72;2.40;;;;;;;;;;5078455;28;20547;-82
2023/03/21 10:00:28;;;;;;;3.38;2.67;;;;;;;;;;5079749;28;20400;-83
2023/03/21 10:03:00;;;;;;;3.40;2.53;;;;;;;;;;5078816;28;20055;-82
2023/03/21 10:05:29;;;;;;;4.47;2.38;;;;;;;;;;5076504;28;20436;-83
2023/03/21 10:08:21;;;;;;;4.28;2.80;;;;;;;;;;5077130;28;20041;-83
2023/03/21 10:10:54;;;;;;;2.85;2.40;;;;;;;;;;5077899;28;20044;-82
2023/03/21 10:13:27;;;;;;;;;;;;;;;;;;5076336;28;20040;-82
2023/03/21 10:15:59;;;;;;;3.00;2.30;;;;;;;;;;5077976;28;19912;-81
2023/03/21 10:18:28;;;;;;;4.65;2.70;;;;;;;;;;5078209;28;20032;-82
2023/03/21 10:20:53;;;;;;;4.05;2.80;;;;;;;;;;5077402;28;20024;-82
2023/03/21 10:23:23;;;;;;;4.50;2.50;;;;;;;;;;5077173;28;20066;-82
2023/03/21 10:25:51;;;;;;;4.85;2.80;;;;;;;;;;5082565;28;20025;-81
2023/03/21 10:28:21;;;;;;;4.00;2.50;;;;;;;;;;5077802;28;20036;-83
2023/03/21 10:30:55;;;;;;;5.13;3.20;;;;;;;;;;5077723;28;20404;-83
2023/03/21 10:33:31;;;;;;;3.88;2.53;;;;;;;;;;5076691;28;20400;-82
2023/03/21 10:36:04;;;;;;;3.00;2.60;;;;;;;;;;5075798;28;20055;-83
2023/03/21 10:38:30;;;;;;;4.28;2.80;;;;;;;;;;5061725;28;20052;-83
2023/03/21 10:40:55;;;;;;;2.70;2.30;;;;;;;;;;5078458;28;20037;-83
2023/03/21 10:43:32;;;;;;;4.88;2.67;;;;;;;;;;5080102;28;20029;-82
2023/03/21 10:46:04;;;;;;;4.57;2.50;;;;;;;;;;5076377;28;20036;-82
2023/03/21 10:48:35;;;;;;;4.30;2.70;;;;;;;;;;5065592;28;20041;-82
2023/03/21 10:51:00;;;;;;;4.05;2.60;;;;;;;;;;5069159;28;20434;-82
2023/03/21 10:53:33;;;;;;;3.72;2.70;;;;;;;;;;5073418;28;20551;-81
2023/03/21 10:56:00;;;;;;;4.57;2.72;;;;;;;;;;5066868;28;20043;-82
2023/03/21 10:58:33;;;;;;;3.88;2.38;;;;;;;;;;5071136;28;20024;-82
2023/03/21 11:01:04;;;;;;;7.20;2.80;;;;;;;;;;5068043;28;20036;-83
2023/03/21 11:03:35;;;;;;;5.63;2.92;;;;;;;;;;5067852;28;20122;-84
2023/03/21 11:06:22;;;;;;;3.58;2.65;;;;;;;;;;5068924;28;20029;-83
2023/03/21 11:09:12;;;;;;;5.05;2.55;;;;;;;;;;5066616;28;20478;-83
2023/03/21 11:11:49;;;;;;;4.10;2.60;;;;;;;;;;5066311;28;20405;-84
2023/03/21 11:14:37;;;;;;;4.72;2.97;;;;;;;;;;5070448;28;20045;-84
2023/03/21 11:17:18;;;;;;;4.22;2.60;;;;;;;;;;5070395;28;20035;-85
2023/03/21 11:20:04;;;;;;;6.65;2.55;;;;;;;;;;5072954;28;20032;-83
2023/03/21 11:22:37;;;;;;;4.50;2.92;;;;;;;;;;5069318;28;20040;-83
2023/03/21 11:25:05;;;;;;;;;;;;;;;;;;5070617;28;20033;-83
2023/03/21 11:27:31;;;;;;;4.55;2.67;;;;;;;;;;5071835;28;19955;-85
2023/03/21 11:29:59;;;;;;;6.35;2.95;;;;;;;;;;5069231;28;20049;-84
2023/03/21 11:32:37;;;;;;;4.05;2.80;;;;;;;;;;5069559;28;20127;-84
2023/03/21 11:35:11;;;;;;;4.43;3.00;;;;;;;;;;5068718;28;20037;-84
2023/03/21 11:37:49;;;;;;;4.22;3.03;;;;;;;;;;5069269;28;20071;-84
2023/03/21 11:40:20;;;;;;;4.97;2.72;;;;;;;;;;5069970;28;20129;-84
2023/03/21 11:43:17;;;;;;;4.47;3.03;;;;;;;;;;5070071;28;20040;-83
2023/03/21 11:45:56;;;;;;;5.85;2.80;;;;;;;;;;5070505;28;20054;-83
2023/03/21 11:48:22;;;;;;;5.13;3.15;;;;;;;;;;5070109;28;20049;-83
2023/03/21 11:50:50;;;;;;;3.85;3.00;;;;;;;;;;5070263;28;20419;-84
2023/03/21 11:53:41;;;;;;;3.90;3.17;;;;;;;;;;5071403;28;20076;-83
2023/03/21 11:56:30;;;;;;;4.45;3.10;;;;;;;;;;5070931;28;20519;-83
2023/03/21 11:59:06;;;;;;;4.00;2.80;;;;;;;;;;5071210;28;20033;-83
2023/03/21 12:02:12;;;;;;;4.95;3.00;;;;;;;;;;5069887;28;20091;-84
2023/03/21 12:04:46;;;;;;;3.60;2.95;;;;;;;;;;5069304;28;20501;-82
2023/03/21 12:07:32;;;;;;;5.85;3.10;;;;;;;;;;5068400;28;20037;-83
2023/03/21 12:10:34;;;;;;;3.75;2.80;;;;;;;;;;5069072;28;20052;-84
2023/03/21 12:13:05;;;;;;;3.47;2.83;;;;;;;;;;5062013;28;20049;-83
2023/03/21 12:16:01;;;;;;;4.13;3.08;;;;;;;;;;5069174;28;20041;-84
2023/03/21 12:18:46;;;;;;;3.70;3.00;;;;;;;;;;5071655;28;20041;-84
2023/03/21 12:21:33;;;;;;;3.75;3.10;;;;;;;;;;5062947;28;20072;-84
2023/03/21 12:24:10;;;;;;;3.20;2.80;;;;;;;;;;5070690;28;20041;-84
2023/03/21 12:26:55;;;;;;;3.60;2.95;;;;;;;;;;5069805;28;20103;-84
2023/03/21 12:29:33;;;;;;;4.75;3.40;;;;;;;;;;5067718;28;20059;-84
2023/03/21 12:32:23;;;;;;;4.50;3.28;;;;;;;;;;5070247;28;20032;-84
2023/03/21 12:35:01;;;;;;;4.78;2.80;;;;;;;;;;5069936;28;20041;-84
2023/03/21 12:37:38;;;;;;;7.82;3.20;;;;;;;;;;5071386;28;20059;-85
2023/03/21 12:40:36;;;;;;;4.05;2.80;;;;;;;;;;5071018;28;20520;-86
2023/03/21 12:43:13;;;;;;;3.85;3.10;;;;;;;;;;5073686;28;20044;-86
2023/03/21 12:45:43;;;;;;;4.75;3.42;;;;;;;;;;5071213;28;20037;-87
2023/03/21 12:48:36;;;;;;;5.78;3.42;;;;;;;;;;5055246;28;20185;-86
2023/03/21 12:51:07;;;;;;;4.20;3.45;;;;;;;;;;5073363;28;20036;-86
2023/03/21 12:53:51;;;;;;;4.63;3.15;;;;;;;;;;5069930;28;20041;-86
2023/03/21 12:56:46;;;;;;;3.70;3.13;;;;;;;;;;5073029;28;20044;-86
2023/03/21 12:59:24;;;;;;;4.03;3.05;;;;;;;;;;5068796;28;20132;-86
2023/03/21 13:01:54;;;;;;;5.28;3.55;;;;;;;;;;5072172;28;20043;-86
2023/03/21 13:04:42;;;;;;;5.50;3.42;;;;;;;;;;5069272;28;20048;-86
2023/03/21 13:07:18;;;;;;;6.20;3.33;;;;;;;;;;5071054;28;20100;-86
2023/03/21 13:09:53;;;;;;;4.95;2.88;;;;;;;;;;5085720;28;20032;-87
2023/03/21 13:12:22;;;;;;;5.53;3.25;;;;;;;;;;5069501;28;20044;-87
2023/03/21 13:15:04;;;;;;;4.45;3.50;;;;;;;;;;5070781;28;20037;-85
2023/03/21 13:17:39;;;;;;;5.50;3.55;;;;;;;;;;5070737;28;20384;-85
2023/03/21 13:20:29;;;;;;;4.65;3.42;;;;;;;;;;5068701;28;20036;-85
2023/03/21 13:22:55;;;;;;;4.80;3.30;;;;;;;;;;5067670;28;20090;-86
2023/03/21 13:25:23;;;;;;;5.38;3.60;;;;;;;;;;5071981;28;20037;-85
2023/03/21 13:27:59;;;;;;;5.20;3.40;;;;;;;;;;5069837;28;20435;-86
2023/03/21 13:30:28;;;;;;;6.53;3.22;;;;;;;;;;5068811;28;20428;-85
2023/03/21 13:33:06;;;;;;;3.60;3.10;;;;;;;;;;5071372;28;20040;-86
2023/03/21 13:35:43;;;;;;;4.32;2.80;;;;;;;;;;5069573;28;20118;-86
2023/03/21 13:38:28;;;;;;;3.50;3.10;;;;;;;;;;5068873;28;20041;-86
2023/03/21 13:40:56;;;;;;;5.97;3.20;;;;;;;;;;5067681;28;20048;-86
2023/03/21 13:43:38;;;;;;;3.75;3.00;;;;;;;;;;5069187;28;20029;-85
2023/03/21 13:46:32;;;;;;;4.68;3.20;;;;;;;;;;5068218;28;20110;-86
2023/03/21 13:48:58;;;;;;;7.03;2.88;;;;;;;;;;5077518;23;20644;-83
2023/03/21 13:51:35;;;;;;;4.50;3.00;;;;;;;;;;5065605;28;20040;-83
2023/03/21 13:54:10;;;;;;;4.78;3.10;;;;;;;;;;5064552;28;20113;-84
2023/03/21 13:56:51;;;;;;;4.43;3.00;;;;;;;;;;5079662;28;20040;-83
2023/03/21 13:59:37;;;;;;;4.57;2.70;;;;;;;;;;5070366;28;20028;-82
2023/03/21 14:02:11;;;;;;;6.72;2.65;;;;;;;;;;5080552;28;20040;-81
2023/03/21 14:04:39;;;;;;;3.30;2.78;;;;;;;;;;5061877;28;20033;-83
2023/03/21 14:07:18;;;;;;;4.00;3.08;;;;;;;;;;5065413;28;20492;-82
2023/03/21 14:09:50;;;;;;;4.68;3.03;;;;;;;;;;5065998;28;20040;-84
2023/03/21 14:12:21;;;;;;;4.25;3.28;;;;;;;;;;5062933;28;20143;-82
2023/03/21 14:14:51;;;;;;;4.10;3.10;;;;;;;;;;5061832;28;20503;-84
2023/03/21 14:17:24;;;;;;;5.22;3.03;;;;;;;;;;5061130;28;20020;-84
2023/03/21 14:19:55;;;;;;;5.13;2.88;;;;;;;;;;5057674;28;20086;-84
2023/03/21 14:22:22;;;;;;;7.47;5.00;;;;;;;;;;5063863;28;20496;-84
2023/03/21 14:24:59;;;;;;;5.30;3.55;;;;;;;;;;5062259;28;20112;-83
2023/03/21 14:27:29;;;;;;;7.47;4.15;;;;;;;;;;5062784;28;20119;-82
2023/03/21 14:29:55;;;;;;;4.95;2.92;;;;;;;;;;5063463;28;20044;-82
2023/03/21 14:32:24;;;;;;;4.80;3.03;;;;;;;;;;5064520;28;20048;-83
2023/03/21 14:34:49;;;;;;;5.28;3.03;;;;;;;;;;5065748;28;20032;-83
2023/03/21 14:37:30;;;;;;;4.38;3.30;;;;;;;;;;5063033;28;20087;-84
2023/03/21 14:40:07;;;;;;;5.53;3.35;;;;;;;;;;5062319;28;20037;-82
2023/03/21 14:42:35;;;;;;;3.85;2.88;;;;;;;;;;5059212;28;20188;-83
2023/03/21 14:45:14;;;;;;;6.75;3.08;;;;;;;;;;5065244;28;20033;-84
2023/03/21 14:47:40;;;;;;;4.38;3.30;;;;;;;;;;5066089;28;20037;-80
2023/03/21 14:50:09;;;;;;;4.18;3.20;;;;;;;;;;5069210;28;20127;-83
2023/03/21 14:52:35;;;;;;;4.00;3.00;;;;;;;;;;5063017;28;20090;-83
2023/03/21 14:55:10;;;;;;;4.32;3.17;;;;;;;;;;5063421;28;20036;-82
2023/03/21 14:57:36;;;;;;;5.13;3.05;;;;;;;;;;5064235;28;20029;-81
2023/03/21 15:00:11;;;;;;;4.03;3.05;;;;;;;;;;5070845;28;20487;-82
2023/03/21 15:02:39;;;;;;;4.35;3.40;;;;;;;;;;5063699;28;20701;-83
2023/03/21 15:05:15;;;;;;;4.65;3.15;;;;;;;;;;5063987;28;20068;-84
2023/03/21 15:07:41;;;;;;;4.90;3.53;;;;;;;;;;5071639;28;20402;-84
2023/03/21 15:10:16;;;;;;;4.28;3.30;;;;;;;;;;5064583;28;20090;-82
2023/03/21 15:12:57;;;;;;;5.65;3.20;;;;;;;;;;5065010;28;20401;-83
2023/03/21 15:15:25;;;;;;;4.18;3.00;;;;;;;;;;5061669;28;20121;-84
2023/03/21 15:17:52;;;;;;;5.18;3.58;;;;;;;;;;5061593;28;20020;-81
2023/03/21 15:20:23;;;;;;;3.50;3.10;;;;;;;;;;5064244;28;20039;-81
2023/03/21 15:22:54;;;;;;;5.80;3.55;;;;;;;;;;5057517;28;20029;-82
2023/03/21 15:25:26;;;;;;;4.53;3.20;;;;;;;;;;5061716;28;20093;-82
2023/03/21 15:27:54;;;;;;;4.35;3.15;;;;;;;;;;5062641;28;20036;-82
2023/03/21 15:30:29;;;;;;;4.55;3.10;;;;;;;;;;5064436;28;20064;-83
2023/03/21 15:32:56;;;;;;;3.80;3.08;;;;;;;;;;5066722;28;20056;-83
2023/03/21 15:35:28;;;;;;;4.43;3.40;;;;;;;;;;5067584;28;20041;-83
2023/03/21 15:37:57;;;;;;;3.97;3.20;;;;;;;;;;5064460;28;20409;-83
2023/03/21 15:40:28;;;;;;;4.28;3.17;;;;;;;;;;5064835;28;20290;-81
2023/03/21 15:43:06;;;;;;;4.22;3.28;;;;;;;;;;5061424;28;20032;-84
2023/03/21 15:45:32;;;;;;;4.05;3.10;;;;;;;;;;5061033;28;20048;-84
2023/03/21 15:48:01;;;;;;;6.47;3.65;;;;;;;;;;5068087;28;20032;-83